RJNO(METAR)
07/27 16:00
RJNO 270700Z 19002KT 9999 FEW025 BKNXXX 30/24 Q1002 RMK A2959=
戻る
トップページへ戻る
IMOC Co,.Ltd.